UKOO/ODS METAR and TAF weather

Enter ICAO airport designator
Station Type Date Time Source
UKOO METAR 2020/09/19 21:00 UTC NOAA

UKOO 192100Z 00000MPS CAVOK 11/03 Q1021 R16/090060 NOSIG


Station Type Date Time Source
UKOO Decoded METAR 2020/09/19 21:00 UTC NOAA

Odesa, Ukraine (UKOO) 46-26N 030-46E 42M
Sep 19, 2020 - 05:00 PM EDT / 2020.09.19 2100 UTC
Wind: Calm:0
Visibility: greater than 7 mile(s):0
Temperature: 51 F (11 C)
Dew Point: 37 F (3 C)
Relative Humidity: 57%
Pressure (altimeter): 30.15 in. Hg (1021 hPa)
ob: UKOO 192100Z 00000MPS CAVOK 11/03 Q1021 R16/090060 NOSIG
cycle: 21

Station Type Date Time Source
UKOO TAF 2020/09/19 18:12 UTC NOAA

TAF UKOO 191705Z 1918/2018 34003MPS CAVOK
TEMPO 1921/2006 2100 BR

Example: see airport list